Schwenksville, PA (19473)

11:14 PM EDT on May 04, 2015 (GMT -0400)
KA1UDX CWOP-AP704 | | Change Station
CLOSE
Current Station
Personal Weather Station
Location: Collegeville, PA
Elevation: 253 ft
Nearby Weather Stations

Elev 253 ft 40.22 °N, 75.48 °W | Updated 17 seconds ago

Clear
Clear
69.8 °F
Feels Like 69.8 °F
N
0.3
Wind Variable Wind from South
Gusts 1.0 mph

Today
High -- | Low -- °F
--% Chance of Precip.
Yesterday
High -- | Low -- °F
Precip. -- in
5:58 AM 7:59 PM
Full, 99% visible
Pressure 30.18 in
Visibility 10.0 miles
Clouds Clear
Dew Point 41 °F
Humidity 35%
Rainfall 0.00 in
Snow Depth Not available.
UV 0 out of 12
Pollen 10.70 out of 12
Air Quality Not available.
Flu Activity Sporadic
METAR KPTW 050154Z AUTO VRB04KT 10SM CLR 22/08 A3019 RMK AO2 SLP218 T02220078

More Conditions Fewer Conditions

Pressure 30.18 in
Visibility 10.0 miles
Clouds Clear
Dew Point 41 °F
Humidity 35%
Rainfall 0.00 in
Snow Depth Not available.
UV 0 out of 12
Pollen 10.70 out of 12
Air Quality Not available.
Flu Activity Sporadic
METAR KPTW 050154Z AUTO VRB04KT 10SM CLR 22/08 A3019 RMK AO2 SLP218 T02220078

More Conditions Fewer Conditions

Nepal has a long way to go to dig out and rebuild from a devastating earthquake. We have teamed up with several charities and organizations to make contributing to the relief effort as easy as possible.
How you can help: Portlight Strategies | Red Cross

10-Day Weather Forecast

Almanac

Astronomy

May. 04, 2015 Rise Set
Actual Time
Civil Twilight
Nautical Twilight
Astronomical Twilight
Moon
Length of Visible Light
Length of Day
Tomorrow will be .
, % of the Moon is Illuminated

Today's Extremes

State Highs State Lows

Community

WunderPhotos

Upload Photos

1,818,807 photos uploaded!

WunderBlogs® & News

Nearby

Air Quality

  Air Quality AQ Index Pollutant
Not available.

Snow Depth

Station Depth Elevation

Earthquake Activity

City Distance Mag. Time & Date
Minimum magnitude displayed is 2.5.

Coastal Water Temperatures

Place Temperature

Stations

Nearby Weather Stations

Station Location Temp. Windchill Dew Point Humidity Wind Precip. Elev Updated Type